createdAt,value
2023-12-10T00:04:06.647Z,-0.10
2023-12-10T00:09:09.946Z,-0.09
2023-12-10T00:14:12.892Z,-0.09
2023-12-10T00:19:15.997Z,-0.08
2023-12-10T00:24:19.124Z,-0.09
2023-12-10T00:29:22.130Z,-0.11
2023-12-10T00:34:25.272Z,-0.12
2023-12-10T00:39:30.026Z,-0.11
2023-12-10T00:44:33.137Z,-0.11
2023-12-10T00:49:36.177Z,-0.11
2023-12-10T00:54:40.579Z,-0.10
2023-12-10T00:59:43.485Z,-0.09
2023-12-10T01:04:46.707Z,-0.10
2023-12-10T01:09:50.208Z,-0.10
2023-12-10T01:14:53.580Z,-0.11
2023-12-10T01:19:56.537Z,-0.12
2023-12-10T01:24:59.646Z,-0.12
2023-12-10T01:30:02.912Z,-0.14
2023-12-10T01:35:06.333Z,-0.14
2023-12-10T01:40:10.148Z,-0.13
2023-12-10T01:45:13.327Z,-0.14
2023-12-10T01:50:16.893Z,-0.15
2023-12-10T01:55:19.982Z,-0.16
2023-12-10T02:00:23.180Z,-0.17
2023-12-10T02:05:26.159Z,-0.17
2023-12-10T02:10:30.787Z,-0.18
2023-12-10T02:15:33.808Z,-0.18
2023-12-10T02:20:36.833Z,-0.17
2023-12-10T02:25:40.364Z,-0.18
2023-12-10T02:30:43.274Z,-0.18
2023-12-10T02:35:46.273Z,-0.18
2023-12-10T02:40:50.382Z,-0.18
2023-12-10T02:45:53.419Z,-0.19
2023-12-10T02:50:56.844Z,-0.19
2023-12-10T02:55:59.954Z,-0.19
2023-12-10T03:01:03.193Z,-0.21
2023-12-10T03:06:08.622Z,-0.25
2023-12-10T03:11:11.848Z,-0.27
2023-12-10T03:16:14.988Z,-0.27
2023-12-10T03:21:18.199Z,-0.27
2023-12-10T03:26:23.367Z,-0.26
2023-12-10T03:31:26.361Z,-0.25
2023-12-10T03:36:29.507Z,-0.25
2023-12-10T03:41:32.508Z,-0.26
2023-12-10T03:46:35.394Z,-0.26
2023-12-10T03:51:38.335Z,-0.26
2023-12-10T03:56:41.423Z,-0.26
2023-12-10T04:01:44.799Z,-0.25
2023-12-10T04:06:48.788Z,-0.26
2023-12-10T04:11:51.864Z,-0.28
2023-12-10T04:16:55.445Z,-0.30
2023-12-10T04:21:58.444Z,-0.30
2023-12-10T04:27:01.610Z,-0.31
2023-12-10T04:32:05.862Z,-0.31
2023-12-10T04:37:08.777Z,-0.30
2023-12-10T04:42:12.190Z,-0.31
2023-12-10T04:47:15.252Z,-0.32
2023-12-10T04:52:19.335Z,-0.33
2023-12-10T04:57:22.902Z,-0.35
2023-12-10T05:02:26.535Z,-0.37
2023-12-10T05:07:29.613Z,-0.40
2023-12-10T05:12:32.858Z,-0.43
2023-12-10T05:17:36.072Z,-0.46
2023-12-10T05:22:39.077Z,-0.51
2023-12-10T05:27:42.244Z,-0.55
2023-12-10T05:32:45.235Z,-0.57
2023-12-10T05:37:48.486Z,-0.59
2023-12-10T05:42:51.525Z,-0.63
2023-12-10T05:47:54.742Z,-0.68
2023-12-10T05:52:58.237Z,-0.73
2023-12-10T05:58:01.388Z,-0.79
2023-12-10T06:03:04.478Z,-0.82
2023-12-10T06:08:07.580Z,-0.85
2023-12-10T06:13:11.431Z,-0.93
2023-12-10T06:18:14.753Z,-1.01
2023-12-10T06:23:17.930Z,-1.08
2023-12-10T06:28:20.836Z,-1.09
2023-12-10T06:33:26.327Z,-1.11
2023-12-10T06:38:29.534Z,-1.12
2023-12-10T06:43:32.575Z,-1.13
2023-12-10T06:48:35.946Z,-1.14
2023-12-10T06:53:41.264Z,-1.15
2023-12-10T06:58:44.278Z,-1.14
2023-12-10T07:03:47.276Z,-1.13
2023-12-10T07:08:50.245Z,-1.14
2023-12-10T07:13:54.568Z,-1.11
2023-12-10T07:18:57.684Z,-1.07
2023-12-10T07:24:00.746Z,-0.98
2023-12-10T07:29:03.683Z,-0.93
2023-12-10T07:34:06.939Z,-0.93
2023-12-10T07:39:11.438Z,-0.89
2023-12-10T07:44:14.614Z,-0.86
2023-12-10T07:49:18.585Z,-0.83
2023-12-10T07:54:21.952Z,-0.82
2023-12-10T07:59:26.373Z,-0.81
2023-12-10T08:04:29.587Z,-0.74
2023-12-10T08:09:33.124Z,-0.70
2023-12-10T08:14:36.687Z,-0.67
2023-12-10T08:19:41.859Z,-0.69
2023-12-10T08:24:44.989Z,-0.71
2023-12-10T08:29:48.024Z,-0.70
2023-12-10T08:34:51.267Z,-0.66
2023-12-10T08:39:55.444Z,-0.61
2023-12-10T08:44:59.548Z,-0.56
2023-12-10T08:50:04.598Z,-0.51
2023-12-10T08:55:08.228Z,-0.46
2023-12-10T09:00:12.003Z,-0.42
2023-12-10T09:05:15.152Z,-0.34
2023-12-10T09:10:18.344Z,-0.25
2023-12-10T09:15:21.407Z,-0.17
2023-12-10T09:20:24.519Z,-0.17
2023-12-10T09:25:27.578Z,-0.15
2023-12-10T09:30:30.713Z,-0.08
2023-12-10T09:35:33.802Z,0.00
2023-12-10T09:40:36.810Z,0.09
2023-12-10T09:45:39.957Z,0.20
2023-12-10T09:50:43.472Z,0.23
2023-12-10T09:55:47.173Z,0.27
2023-12-10T10:00:52.311Z,0.35
2023-12-10T10:05:55.674Z,0.43
2023-12-10T10:10:59.105Z,0.46
2023-12-10T10:16:11.626Z,0.51
2023-12-10T10:21:14.581Z,0.53
2023-12-10T10:26:19.096Z,0.56
2023-12-10T10:31:22.186Z,0.59
2023-12-10T10:36:25.398Z,0.55
2023-12-10T10:41:28.511Z,0.58
2023-12-10T10:46:33.779Z,0.58
2023-12-10T10:51:36.890Z,0.60
2023-12-10T10:56:40.003Z,0.63
2023-12-10T11:01:43.802Z,0.65
2023-12-10T11:06:47.503Z,0.66
2023-12-10T11:11:51.156Z,0.66
2023-12-10T11:16:57.199Z,0.64
2023-12-10T11:22:00.814Z,0.66
2023-12-10T11:27:04.129Z,0.65
2023-12-10T11:32:07.235Z,0.65
2023-12-10T11:37:10.383Z,0.64
2023-12-10T11:42:13.348Z,0.62
2023-12-10T11:47:16.357Z,0.58
2023-12-10T11:52:19.592Z,0.56
2023-12-10T11:57:23.152Z,0.55
2023-12-10T12:02:26.253Z,0.55
2023-12-10T12:07:30.030Z,0.54
2023-12-10T12:12:38.319Z,0.53
2023-12-10T12:17:42.429Z,0.51
2023-12-10T12:22:49.636Z,0.48
2023-12-10T12:27:53.129Z,0.43
2023-12-10T12:32:56.461Z,0.40
2023-12-10T12:37:59.754Z,0.38
2023-12-10T12:43:02.950Z,0.36
2023-12-10T12:48:06.503Z,0.34
2023-12-10T12:53:12.644Z,0.36
2023-12-10T12:58:15.822Z,0.34
2023-12-10T13:03:19.207Z,0.31
2023-12-10T13:08:22.537Z,0.29
2023-12-10T13:13:25.501Z,0.27
2023-12-10T13:18:28.713Z,0.28
2023-12-10T13:23:32.257Z,0.28
2023-12-10T13:28:35.503Z,0.27
2023-12-10T13:33:39.981Z,0.26
2023-12-10T13:38:43.104Z,0.24
2023-12-10T13:43:46.176Z,0.22
2023-12-10T13:48:49.835Z,0.18
2023-12-10T13:53:53.287Z,0.19
2023-12-10T13:58:56.824Z,0.15
2023-12-10T14:04:00.503Z,0.13
2023-12-10T14:09:05.864Z,0.12
2023-12-10T14:14:11.167Z,0.09
2023-12-10T14:19:15.518Z,0.05
2023-12-10T14:24:18.673Z,0.00
2023-12-10T14:29:21.646Z,-0.02
2023-12-10T14:34:24.876Z,-0.06
2023-12-10T14:39:28.000Z,-0.11
2023-12-10T14:44:31.084Z,-0.16
2023-12-10T14:49:34.056Z,-0.19
2023-12-10T14:54:37.033Z,-0.20
2023-12-10T14:59:40.691Z,-0.20
2023-12-10T15:04:43.605Z,-0.21
2023-12-10T15:09:47.700Z,-0.22
2023-12-10T15:14:50.979Z,-0.23
2023-12-10T15:19:54.179Z,-0.23
2023-12-10T15:24:57.294Z,-0.25
2023-12-10T15:30:00.362Z,-0.25
2023-12-10T15:35:04.347Z,-0.25
2023-12-10T15:40:08.156Z,-0.25
2023-12-10T15:45:14.530Z,-0.26
2023-12-10T15:50:17.640Z,-0.27
2023-12-10T15:55:20.912Z,-0.27
2023-12-10T16:00:24.171Z,-0.27
2023-12-10T16:05:27.240Z,-0.27
2023-12-10T16:10:30.297Z,-0.27
2023-12-10T16:15:33.230Z,-0.26
2023-12-10T16:20:36.163Z,-0.26
2023-12-10T16:25:39.136Z,-0.25
2023-12-10T16:30:43.087Z,-0.25
2023-12-10T16:35:46.214Z,-0.25
2023-12-10T16:40:49.481Z,-0.24
2023-12-10T16:45:52.575Z,-0.24
2023-12-10T16:50:55.844Z,-0.25
2023-12-10T16:55:59.002Z,-0.23
2023-12-10T17:01:03.366Z,-0.21
2023-12-10T17:06:08.490Z,-0.19
2023-12-10T17:11:11.922Z,-0.17
2023-12-10T17:16:14.854Z,-0.16
2023-12-10T17:21:18.007Z,-0.15
2023-12-10T17:26:21.050Z,-0.13
2023-12-10T17:31:23.992Z,-0.11
2023-12-10T17:36:27.022Z,-0.09
2023-12-10T17:41:30.092Z,-0.07
2023-12-10T17:46:33.156Z,-0.05
2023-12-10T17:51:36.266Z,-0.05
2023-12-10T17:56:39.403Z,-0.04
2023-12-10T18:01:42.829Z,-0.02
2023-12-10T18:06:47.612Z,0.00
2023-12-10T18:11:50.649Z,0.01
2023-12-10T18:16:53.661Z,0.03
2023-12-10T18:21:56.673Z,0.05
2023-12-10T18:26:59.670Z,0.06
2023-12-10T18:32:05.052Z,0.08
2023-12-10T18:37:08.092Z,0.09
2023-12-10T18:42:11.749Z,0.11
2023-12-10T18:47:15.158Z,0.12
2023-12-10T18:52:18.098Z,0.13
2023-12-10T18:57:21.285Z,0.14
2023-12-10T19:02:25.050Z,0.16
2023-12-10T19:07:28.462Z,0.18
2023-12-10T19:12:34.175Z,0.20
2023-12-10T19:17:37.545Z,0.20
2023-12-10T19:22:40.761Z,0.22
2023-12-10T19:27:46.273Z,0.23
2023-12-10T19:32:50.926Z,0.24
2023-12-10T19:37:53.968Z,0.26
2023-12-10T19:42:57.542Z,0.27
2023-12-10T19:48:00.877Z,0.29
2023-12-10T19:53:04.057Z,0.30
2023-12-10T19:58:07.280Z,0.32
2023-12-10T20:03:10.204Z,0.34
2023-12-10T20:08:14.168Z,0.36
2023-12-10T20:13:17.313Z,0.38
2023-12-10T20:18:20.746Z,0.39
2023-12-10T20:23:24.786Z,0.38
2023-12-10T20:28:27.744Z,0.38
2023-12-10T20:33:30.840Z,0.37
2023-12-10T20:38:34.011Z,0.39
2023-12-10T20:43:37.021Z,0.42
2023-12-10T20:48:40.168Z,0.44
2023-12-10T20:53:43.405Z,0.48
2023-12-10T20:58:46.457Z,0.49
2023-12-10T21:03:49.379Z,0.51
2023-12-10T21:08:52.604Z,0.52
2023-12-10T21:13:55.606Z,0.54
2023-12-10T21:19:01.203Z,0.55
2023-12-10T21:24:04.357Z,0.58
2023-12-10T21:29:07.361Z,0.62
2023-12-10T21:34:10.607Z,0.65
2023-12-10T21:39:14.384Z,0.67
2023-12-10T21:44:17.422Z,0.70
2023-12-10T21:49:20.448Z,0.72
2023-12-10T21:54:26.232Z,0.76
2023-12-10T21:59:29.297Z,0.85
2023-12-10T22:04:32.424Z,0.89
2023-12-10T22:09:35.553Z,0.90
2023-12-10T22:14:38.622Z,0.91
2023-12-10T22:19:41.662Z,0.93
2023-12-10T22:24:44.932Z,0.94
2023-12-10T22:29:51.639Z,0.96
2023-12-10T22:34:54.622Z,0.98
2023-12-10T22:39:57.803Z,1.02
2023-12-10T22:45:00.842Z,1.03
2023-12-10T22:50:04.476Z,1.05
2023-12-10T22:55:09.840Z,1.07
2023-12-10T23:00:18.471Z,1.08
2023-12-10T23:05:21.895Z,1.10
2023-12-10T23:10:24.887Z,1.12
2023-12-10T23:15:29.714Z,1.14
2023-12-10T23:20:32.733Z,1.17
2023-12-10T23:25:36.020Z,1.19
2023-12-10T23:30:45.038Z,1.22
2023-12-10T23:35:48.665Z,1.22
2023-12-10T23:40:51.756Z,1.21
2023-12-10T23:45:55.035Z,1.22
2023-12-10T23:50:58.079Z,1.23
2023-12-10T23:56:02.872Z,1.23
